<?xml version="1.0" encoding="UTF-8" standalone="no" ?>
<gpx xmlns="http://www.topografix.com/GPX/1/1" xmlns:xsi="http://www.w3.org/2001/XMLSchema-instance" xsi:schemaLocation="http://www.topografix.com/GPX/1/1 http://www.topografix.com/GPX/1/1/gpx.xsd" version="1.1" creator="VisuGPX - https://www.visugpx.com">
  <metadata>
    <name>Davrinche20104</name>
    <desc><![CDATA[la partie 4 des itinéraires de repérage]]></desc>
  </metadata>
  <trk>
    <name><![CDATA[--Manzat-- OR-5378134:ser-jb07-vtt-b]]></name>
    <trkseg>
      <trkpt lat="45.96113" lon="2.94189">
        <ele>630</ele>
        <time>2015-10-18T23:11:52Z</time>
      </trkpt>
      <trkpt lat="45.96095" lon="2.94204">
        <ele>632</ele>
        <time>2015-10-18T23:13:52Z</time>
      </trkpt>
      <trkpt lat="45.96087" lon="2.9423">
        <ele>632</ele>
        <time>2015-10-18T23:15:52Z</time>
      </trkpt>
      <trkpt lat="45.96105" lon="2.94246">
        <ele>631</ele>
        <time>2015-10-18T23:17:52Z</time>
      </trkpt>
      <trkpt lat="45.96116" lon="2.94268">
        <ele>631</ele>
        <time>2015-10-18T23:19:52Z</time>
      </trkpt>
      <trkpt lat="45.96123" lon="2.9429">
        <ele>632</ele>
        <time>2015-10-18T23:21:52Z</time>
      </trkpt>
      <trkpt lat="45.96131" lon="2.9431">
        <ele>632</ele>
        <time>2015-10-18T23:23:52Z</time>
      </trkpt>
      <trkpt lat="45.96147" lon="2.94327">
        <ele>631</ele>
        <time>2015-10-18T23:25:52Z</time>
      </trkpt>
      <trkpt lat="45.96164" lon="2.94336">
        <ele>630</ele>
        <time>2015-10-18T23:27:52Z</time>
      </trkpt>
      <trkpt lat="45.96191" lon="2.94327">
        <ele>628</ele>
        <time>2015-10-18T23:29:52Z</time>
      </trkpt>
      <trkpt lat="45.96228" lon="2.94316">
        <ele>625</ele>
        <time>2015-10-18T23:31:52Z</time>
      </trkpt>
      <trkpt lat="45.96278" lon="2.94284">
        <ele>622</ele>
        <time>2015-10-18T23:33:52Z</time>
      </trkpt>
      <trkpt lat="45.96299" lon="2.94295">
        <ele>623</ele>
        <time>2015-10-18T23:35:52Z</time>
      </trkpt>
      <trkpt lat="45.96329" lon="2.94341">
        <ele>625</ele>
        <time>2015-10-18T23:37:52Z</time>
      </trkpt>
      <trkpt lat="45.9636" lon="2.94372">
        <ele>625</ele>
        <time>2015-10-18T23:39:52Z</time>
      </trkpt>
      <trkpt lat="45.96379" lon="2.944">
        <ele>626</ele>
        <time>2015-10-18T23:41:52Z</time>
      </trkpt>
      <trkpt lat="45.96392" lon="2.9442">
        <ele>627</ele>
        <time>2015-10-18T23:43:52Z</time>
      </trkpt>
      <trkpt lat="45.96413" lon="2.94518">
        <ele>629</ele>
        <time>2015-10-18T23:45:52Z</time>
      </trkpt>
      <trkpt lat="45.96422" lon="2.94558">
        <ele>629</ele>
        <time>2015-10-18T23:47:52Z</time>
      </trkpt>
      <trkpt lat="45.96454" lon="2.94665">
        <ele>629</ele>
        <time>2015-10-18T23:49:52Z</time>
      </trkpt>
      <trkpt lat="45.96466" lon="2.94708">
        <ele>629</ele>
        <time>2015-10-18T23:51:52Z</time>
      </trkpt>
      <trkpt lat="45.96482" lon="2.94756">
        <ele>627</ele>
        <time>2015-10-18T23:53:52Z</time>
      </trkpt>
      <trkpt lat="45.96497" lon="2.94794">
        <ele>628</ele>
        <time>2015-10-18T23:55:52Z</time>
      </trkpt>
      <trkpt lat="45.96512" lon="2.94823">
        <ele>629</ele>
        <time>2015-10-18T23:57:52Z</time>
      </trkpt>
      <trkpt lat="45.96534" lon="2.94835">
        <ele>629</ele>
        <time>2015-10-18T23:59:52Z</time>
      </trkpt>
      <trkpt lat="45.96574" lon="2.94839">
        <ele>629</ele>
        <time>2015-10-19T00:01:52Z</time>
      </trkpt>
      <trkpt lat="45.9661" lon="2.9483">
        <ele>631</ele>
        <time>2015-10-19T00:03:52Z</time>
      </trkpt>
      <trkpt lat="45.96606" lon="2.94855">
        <ele>632</ele>
        <time>2015-10-19T00:05:52Z</time>
      </trkpt>
      <trkpt lat="45.96588" lon="2.94881">
        <ele>632</ele>
        <time>2015-10-19T00:07:52Z</time>
      </trkpt>
      <trkpt lat="45.96571" lon="2.94891">
        <ele>632</ele>
        <time>2015-10-19T00:09:52Z</time>
      </trkpt>
      <trkpt lat="45.96545" lon="2.94911">
        <ele>632</ele>
        <time>2015-10-19T00:11:52Z</time>
      </trkpt>
      <trkpt lat="45.96526" lon="2.94927">
        <ele>633</ele>
        <time>2015-10-19T00:13:52Z</time>
      </trkpt>
      <trkpt lat="45.96508" lon="2.94942">
        <ele>633</ele>
        <time>2015-10-19T00:15:52Z</time>
      </trkpt>
      <trkpt lat="45.96496" lon="2.94961">
        <ele>634</ele>
        <time>2015-10-19T00:17:52Z</time>
      </trkpt>
      <trkpt lat="45.96483" lon="2.94984">
        <ele>636</ele>
        <time>2015-10-19T00:19:52Z</time>
      </trkpt>
      <trkpt lat="45.96467" lon="2.95003">
        <ele>637</ele>
        <time>2015-10-19T00:21:52Z</time>
      </trkpt>
      <trkpt lat="45.96447" lon="2.95025">
        <ele>638</ele>
        <time>2015-10-19T00:23:52Z</time>
      </trkpt>
      <trkpt lat="45.9643" lon="2.95042">
        <ele>639</ele>
        <time>2015-10-19T00:25:52Z</time>
      </trkpt>
      <trkpt lat="45.96412" lon="2.95061">
        <ele>641</ele>
        <time>2015-10-19T00:27:52Z</time>
      </trkpt>
      <trkpt lat="45.96389" lon="2.95087">
        <ele>643</ele>
        <time>2015-10-19T00:29:52Z</time>
      </trkpt>
      <trkpt lat="45.96363" lon="2.95118">
        <ele>646</ele>
        <time>2015-10-19T00:31:52Z</time>
      </trkpt>
      <trkpt lat="45.96347" lon="2.95153">
        <ele>650</ele>
        <time>2015-10-19T00:33:52Z</time>
      </trkpt>
      <trkpt lat="45.96329" lon="2.95182">
        <ele>652</ele>
        <time>2015-10-19T00:35:52Z</time>
      </trkpt>
      <trkpt lat="45.96308" lon="2.95212">
        <ele>652</ele>
        <time>2015-10-19T00:37:52Z</time>
      </trkpt>
      <trkpt lat="45.96322" lon="2.95258">
        <ele>655</ele>
        <time>2015-10-19T00:39:52Z</time>
      </trkpt>
      <trkpt lat="45.96333" lon="2.9529">
        <ele>657</ele>
        <time>2015-10-19T00:41:52Z</time>
      </trkpt>
      <trkpt lat="45.96337" lon="2.95326">
        <ele>658</ele>
        <time>2015-10-19T00:43:52Z</time>
      </trkpt>
      <trkpt lat="45.96339" lon="2.9536">
        <ele>658</ele>
        <time>2015-10-19T00:45:52Z</time>
      </trkpt>
      <trkpt lat="45.96324" lon="2.954">
        <ele>657</ele>
        <time>2015-10-19T00:47:52Z</time>
      </trkpt>
      <trkpt lat="45.96315" lon="2.95437">
        <ele>657</ele>
        <time>2015-10-19T00:49:52Z</time>
      </trkpt>
      <trkpt lat="45.96314" lon="2.9548">
        <ele>657</ele>
        <time>2015-10-19T00:51:52Z</time>
      </trkpt>
      <trkpt lat="45.96319" lon="2.95522">
        <ele>658</ele>
        <time>2015-10-19T00:53:52Z</time>
      </trkpt>
      <trkpt lat="45.96322" lon="2.95547">
        <ele>659</ele>
        <time>2015-10-19T00:55:52Z</time>
      </trkpt>
      <trkpt lat="45.96333" lon="2.95555">
        <ele>659</ele>
        <time>2015-10-19T00:57:52Z</time>
      </trkpt>
      <trkpt lat="45.96329" lon="2.95582">
        <ele>660</ele>
        <time>2015-10-19T00:59:52Z</time>
      </trkpt>
      <trkpt lat="45.96325" lon="2.95634">
        <ele>661</ele>
        <time>2015-10-19T01:01:52Z</time>
      </trkpt>
      <trkpt lat="45.96319" lon="2.95664">
        <ele>661</ele>
        <time>2015-10-19T01:03:52Z</time>
      </trkpt>
      <trkpt lat="45.96299" lon="2.95695">
        <ele>661</ele>
        <time>2015-10-19T01:05:52Z</time>
      </trkpt>
      <trkpt lat="45.96272" lon="2.95728">
        <ele>661</ele>
        <time>2015-10-19T01:07:52Z</time>
      </trkpt>
      <trkpt lat="45.96245" lon="2.95749">
        <ele>660</ele>
        <time>2015-10-19T01:09:52Z</time>
      </trkpt>
      <trkpt lat="45.96228" lon="2.95769">
        <ele>661</ele>
        <time>2015-10-19T01:11:52Z</time>
      </trkpt>
      <trkpt lat="45.96202" lon="2.958">
        <ele>662</ele>
        <time>2015-10-19T01:13:52Z</time>
      </trkpt>
      <trkpt lat="45.96163" lon="2.95842">
        <ele>664</ele>
        <time>2015-10-19T01:15:52Z</time>
      </trkpt>
      <trkpt lat="45.96144" lon="2.95872">
        <ele>666</ele>
        <time>2015-10-19T01:17:52Z</time>
      </trkpt>
      <trkpt lat="45.96135" lon="2.9592">
        <ele>668</ele>
        <time>2015-10-19T01:19:52Z</time>
      </trkpt>
      <trkpt lat="45.96126" lon="2.95964">
        <ele>672</ele>
        <time>2015-10-19T01:21:52Z</time>
      </trkpt>
      <trkpt lat="45.96118" lon="2.96013">
        <ele>676</ele>
        <time>2015-10-19T01:23:52Z</time>
      </trkpt>
      <trkpt lat="45.9611" lon="2.96064">
        <ele>682</ele>
        <time>2015-10-19T01:25:52Z</time>
      </trkpt>
      <trkpt lat="45.9608" lon="2.96078">
        <ele>687</ele>
        <time>2015-10-19T01:27:52Z</time>
      </trkpt>
      <trkpt lat="45.9605" lon="2.96089">
        <ele>691</ele>
        <time>2015-10-19T01:29:52Z</time>
      </trkpt>
      <trkpt lat="45.9602" lon="2.96076">
        <ele>693</ele>
        <time>2015-10-19T01:31:52Z</time>
      </trkpt>
      <trkpt lat="45.95997" lon="2.96053">
        <ele>695</ele>
        <time>2015-10-19T01:33:52Z</time>
      </trkpt>
      <trkpt lat="45.95967" lon="2.96033">
        <ele>697</ele>
        <time>2015-10-19T01:35:52Z</time>
      </trkpt>
      <trkpt lat="45.95937" lon="2.96027">
        <ele>701</ele>
        <time>2015-10-19T01:37:52Z</time>
      </trkpt>
      <trkpt lat="45.95917" lon="2.96011">
        <ele>703</ele>
        <time>2015-10-19T01:39:52Z</time>
      </trkpt>
      <trkpt lat="45.95902" lon="2.96026">
        <ele>706</ele>
        <time>2015-10-19T01:41:52Z</time>
      </trkpt>
      <trkpt lat="45.95885" lon="2.96052">
        <ele>710</ele>
        <time>2015-10-19T01:43:52Z</time>
      </trkpt>
      <trkpt lat="45.9585" lon="2.96106">
        <ele>717</ele>
        <time>2015-10-19T01:45:52Z</time>
      </trkpt>
      <trkpt lat="45.95813" lon="2.96076">
        <ele>722</ele>
        <time>2015-10-19T01:47:52Z</time>
      </trkpt>
      <trkpt lat="45.95766" lon="2.96029">
        <ele>726</ele>
        <time>2015-10-19T01:49:52Z</time>
      </trkpt>
      <trkpt lat="45.95734" lon="2.96">
        <ele>729</ele>
        <time>2015-10-19T01:51:52Z</time>
      </trkpt>
      <trkpt lat="45.95686" lon="2.95985">
        <ele>732</ele>
        <time>2015-10-19T01:53:52Z</time>
      </trkpt>
      <trkpt lat="45.95653" lon="2.95986">
        <ele>734</ele>
        <time>2015-10-19T01:55:52Z</time>
      </trkpt>
      <trkpt lat="45.95611" lon="2.95993">
        <ele>735</ele>
        <time>2015-10-19T01:57:52Z</time>
      </trkpt>
      <trkpt lat="45.95583" lon="2.96">
        <ele>736</ele>
        <time>2015-10-19T01:59:52Z</time>
      </trkpt>
      <trkpt lat="45.95542" lon="2.9602">
        <ele>737</ele>
        <time>2015-10-19T02:01:52Z</time>
      </trkpt>
      <trkpt lat="45.95521" lon="2.96027">
        <ele>737</ele>
        <time>2015-10-19T02:03:52Z</time>
      </trkpt>
      <trkpt lat="45.95494" lon="2.96057">
        <ele>738</ele>
        <time>2015-10-19T02:05:52Z</time>
      </trkpt>
      <trkpt lat="45.95482" lon="2.96089">
        <ele>738</ele>
        <time>2015-10-19T02:07:52Z</time>
      </trkpt>
      <trkpt lat="45.9547" lon="2.96114">
        <ele>737</ele>
        <time>2015-10-19T02:09:52Z</time>
      </trkpt>
      <trkpt lat="45.9545" lon="2.96135">
        <ele>735</ele>
        <time>2015-10-19T02:11:52Z</time>
      </trkpt>
      <trkpt lat="45.95388" lon="2.96192">
        <ele>728</ele>
        <time>2015-10-19T02:13:52Z</time>
      </trkpt>
      <trkpt lat="45.95374" lon="2.96199">
        <ele>727</ele>
        <time>2015-10-19T02:15:52Z</time>
      </trkpt>
      <trkpt lat="45.95318" lon="2.96171">
        <ele>720</ele>
        <time>2015-10-19T02:17:52Z</time>
      </trkpt>
      <trkpt lat="45.9528" lon="2.96087">
        <ele>714</ele>
        <time>2015-10-19T02:19:52Z</time>
      </trkpt>
      <trkpt lat="45.9525" lon="2.96078">
        <ele>710</ele>
        <time>2015-10-19T02:21:52Z</time>
      </trkpt>
      <trkpt lat="45.95221" lon="2.96071">
        <ele>705</ele>
        <time>2015-10-19T02:23:52Z</time>
      </trkpt>
      <trkpt lat="45.95203" lon="2.96054">
        <ele>702</ele>
        <time>2015-10-19T02:25:52Z</time>
      </trkpt>
      <trkpt lat="45.95168" lon="2.9597">
        <ele>696</ele>
        <time>2015-10-19T02:27:52Z</time>
      </trkpt>
      <trkpt lat="45.95151" lon="2.95934">
        <ele>695</ele>
        <time>2015-10-19T02:29:52Z</time>
      </trkpt>
      <trkpt lat="45.95124" lon="2.95896">
        <ele>698</ele>
        <time>2015-10-19T02:31:52Z</time>
      </trkpt>
      <trkpt lat="45.95101" lon="2.95891">
        <ele>700</ele>
        <time>2015-10-19T02:33:52Z</time>
      </trkpt>
      <trkpt lat="45.95078" lon="2.95912">
        <ele>699</ele>
        <time>2015-10-19T02:35:52Z</time>
      </trkpt>
      <trkpt lat="45.95063" lon="2.95974">
        <ele>700</ele>
        <time>2015-10-19T02:37:52Z</time>
      </trkpt>
      <trkpt lat="45.94974" lon="2.95924">
        <ele>709</ele>
        <time>2015-10-19T02:39:52Z</time>
      </trkpt>
      <trkpt lat="45.94906" lon="2.95899">
        <ele>719</ele>
        <time>2015-10-19T02:41:52Z</time>
      </trkpt>
      <trkpt lat="45.94823" lon="2.95867">
        <ele>728</ele>
        <time>2015-10-19T02:43:52Z</time>
      </trkpt>
      <trkpt lat="45.94722" lon="2.9582">
        <ele>731</ele>
        <time>2015-10-19T02:45:52Z</time>
      </trkpt>
      <trkpt lat="45.94679" lon="2.95799">
        <ele>734</ele>
        <time>2015-10-19T02:47:52Z</time>
      </trkpt>
      <trkpt lat="45.94657" lon="2.95798">
        <ele>736</ele>
        <time>2015-10-19T02:49:52Z</time>
      </trkpt>
      <trkpt lat="45.94635" lon="2.95809">
        <ele>738</ele>
        <time>2015-10-19T02:51:52Z</time>
      </trkpt>
      <trkpt lat="45.94502" lon="2.95781">
        <ele>746</ele>
        <time>2015-10-19T02:53:52Z</time>
      </trkpt>
      <trkpt lat="45.94481" lon="2.95771">
        <ele>748</ele>
        <time>2015-10-19T02:55:52Z</time>
      </trkpt>
      <trkpt lat="45.94413" lon="2.95711">
        <ele>753</ele>
        <time>2015-10-19T02:57:52Z</time>
      </trkpt>
      <trkpt lat="45.94362" lon="2.95665">
        <ele>755</ele>
        <time>2015-10-19T02:59:52Z</time>
      </trkpt>
      <trkpt lat="45.94254" lon="2.95542">
        <ele>761</ele>
        <time>2015-10-19T03:01:52Z</time>
      </trkpt>
      <trkpt lat="45.94204" lon="2.95511">
        <ele>765</ele>
        <time>2015-10-19T03:03:52Z</time>
      </trkpt>
      <trkpt lat="45.94122" lon="2.9546">
        <ele>777</ele>
        <time>2015-10-19T03:05:52Z</time>
      </trkpt>
      <trkpt lat="45.94101" lon="2.95471">
        <ele>780</ele>
        <time>2015-10-19T03:07:52Z</time>
      </trkpt>
      <trkpt lat="45.94071" lon="2.95473">
        <ele>785</ele>
        <time>2015-10-19T03:09:52Z</time>
      </trkpt>
      <trkpt lat="45.94043" lon="2.95479">
        <ele>790</ele>
        <time>2015-10-19T03:11:52Z</time>
      </trkpt>
      <trkpt lat="45.94013" lon="2.95489">
        <ele>794</ele>
        <time>2015-10-19T03:13:52Z</time>
      </trkpt>
      <trkpt lat="45.93959" lon="2.95468">
        <ele>802</ele>
        <time>2015-10-19T03:15:52Z</time>
      </trkpt>
      <trkpt lat="45.9391" lon="2.95441">
        <ele>808</ele>
        <time>2015-10-19T03:17:52Z</time>
      </trkpt>
      <trkpt lat="45.93873" lon="2.95416">
        <ele>811</ele>
        <time>2015-10-19T03:19:52Z</time>
      </trkpt>
      <trkpt lat="45.93826" lon="2.95369">
        <ele>816</ele>
        <time>2015-10-19T03:21:52Z</time>
      </trkpt>
      <trkpt lat="45.93771" lon="2.95312">
        <ele>819</ele>
        <time>2015-10-19T03:23:52Z</time>
      </trkpt>
      <trkpt lat="45.9372" lon="2.95252">
        <ele>823</ele>
        <time>2015-10-19T03:25:52Z</time>
      </trkpt>
      <trkpt lat="45.93705" lon="2.95238">
        <ele>824</ele>
        <time>2015-10-19T03:27:52Z</time>
      </trkpt>
      <trkpt lat="45.93668" lon="2.95231">
        <ele>825</ele>
        <time>2015-10-19T03:29:52Z</time>
      </trkpt>
      <trkpt lat="45.93626" lon="2.95227">
        <ele>827</ele>
        <time>2015-10-19T03:31:52Z</time>
      </trkpt>
      <trkpt lat="45.93608" lon="2.95227">
        <ele>828</ele>
        <time>2015-10-19T03:33:52Z</time>
      </trkpt>
      <trkpt lat="45.93589" lon="2.95199">
        <ele>828</ele>
        <time>2015-10-19T03:35:52Z</time>
      </trkpt>
      <trkpt lat="45.93568" lon="2.95162">
        <ele>829</ele>
        <time>2015-10-19T03:37:52Z</time>
      </trkpt>
      <trkpt lat="45.93553" lon="2.95038">
        <ele>832</ele>
        <time>2015-10-19T03:39:52Z</time>
      </trkpt>
      <trkpt lat="45.93532" lon="2.94882">
        <ele>831</ele>
        <time>2015-10-19T03:41:52Z</time>
      </trkpt>
      <trkpt lat="45.93514" lon="2.94889">
        <ele>832</ele>
        <time>2015-10-19T03:43:52Z</time>
      </trkpt>
      <trkpt lat="45.93441" lon="2.94841">
        <ele>832</ele>
        <time>2015-10-19T03:45:52Z</time>
      </trkpt>
      <trkpt lat="45.93391" lon="2.94813">
        <ele>831</ele>
        <time>2015-10-19T03:47:52Z</time>
      </trkpt>
      <trkpt lat="45.93346" lon="2.94783">
        <ele>829</ele>
        <time>2015-10-19T03:49:52Z</time>
      </trkpt>
      <trkpt lat="45.9327" lon="2.94705">
        <ele>824</ele>
        <time>2015-10-19T03:51:52Z</time>
      </trkpt>
      <trkpt lat="45.93226" lon="2.94654">
        <ele>821</ele>
        <time>2015-10-19T03:53:52Z</time>
      </trkpt>
      <trkpt lat="45.93211" lon="2.94623">
        <ele>820</ele>
        <time>2015-10-19T03:55:52Z</time>
      </trkpt>
      <trkpt lat="45.93181" lon="2.94569">
        <ele>821</ele>
        <time>2015-10-19T03:57:52Z</time>
      </trkpt>
      <trkpt lat="45.93143" lon="2.94523">
        <ele>824</ele>
        <time>2015-10-19T03:59:52Z</time>
      </trkpt>
      <trkpt lat="45.93082" lon="2.94428">
        <ele>830</ele>
        <time>2015-10-19T04:01:52Z</time>
      </trkpt>
      <trkpt lat="45.9306" lon="2.94402">
        <ele>832</ele>
        <time>2015-10-19T04:03:52Z</time>
      </trkpt>
      <trkpt lat="45.93011" lon="2.94372">
        <ele>837</ele>
        <time>2015-10-19T04:05:52Z</time>
      </trkpt>
      <trkpt lat="45.92994" lon="2.94382">
        <ele>838</ele>
        <time>2015-10-19T04:07:52Z</time>
      </trkpt>
      <trkpt lat="45.92969" lon="2.94389">
        <ele>839</ele>
        <time>2015-10-19T04:09:52Z</time>
      </trkpt>
      <trkpt lat="45.92892" lon="2.94374">
        <ele>843</ele>
        <time>2015-10-19T04:11:52Z</time>
      </trkpt>
      <trkpt lat="45.92819" lon="2.94325">
        <ele>851</ele>
        <time>2015-10-19T04:13:52Z</time>
      </trkpt>
      <trkpt lat="45.92713" lon="2.94257">
        <ele>858</ele>
        <time>2015-10-19T04:15:52Z</time>
      </trkpt>
      <trkpt lat="45.92657" lon="2.94228">
        <ele>862</ele>
        <time>2015-10-19T04:17:52Z</time>
      </trkpt>
      <trkpt lat="45.92621" lon="2.94202">
        <ele>865</ele>
        <time>2015-10-19T04:19:52Z</time>
      </trkpt>
      <trkpt lat="45.92594" lon="2.94172">
        <ele>866</ele>
        <time>2015-10-19T04:21:52Z</time>
      </trkpt>
      <trkpt lat="45.92585" lon="2.94146">
        <ele>866</ele>
        <time>2015-10-19T04:23:52Z</time>
      </trkpt>
      <trkpt lat="45.92582" lon="2.94169">
        <ele>866</ele>
        <time>2015-10-19T04:25:52Z</time>
      </trkpt>
      <trkpt lat="45.92581" lon="2.94218">
        <ele>867</ele>
        <time>2015-10-19T04:27:52Z</time>
      </trkpt>
      <trkpt lat="45.92579" lon="2.94276">
        <ele>867</ele>
        <time>2015-10-19T04:29:52Z</time>
      </trkpt>
      <trkpt lat="45.92576" lon="2.94313">
        <ele>867</ele>
        <time>2015-10-19T04:31:52Z</time>
      </trkpt>
      <trkpt lat="45.92561" lon="2.94356">
        <ele>867</ele>
        <time>2015-10-19T04:33:52Z</time>
      </trkpt>
      <trkpt lat="45.92542" lon="2.94396">
        <ele>866</ele>
        <time>2015-10-19T04:35:52Z</time>
      </trkpt>
      <trkpt lat="45.92517" lon="2.94434">
        <ele>867</ele>
        <time>2015-10-19T04:37:52Z</time>
      </trkpt>
      <trkpt lat="45.92489" lon="2.94467">
        <ele>866</ele>
        <time>2015-10-19T04:39:52Z</time>
      </trkpt>
      <trkpt lat="45.92453" lon="2.945">
        <ele>866</ele>
        <time>2015-10-19T04:41:52Z</time>
      </trkpt>
      <trkpt lat="45.92423" lon="2.94533">
        <ele>864</ele>
        <time>2015-10-19T04:43:52Z</time>
      </trkpt>
      <trkpt lat="45.92408" lon="2.9455">
        <ele>863</ele>
        <time>2015-10-19T04:45:52Z</time>
      </trkpt>
      <trkpt lat="45.92359" lon="2.9459">
        <ele>863</ele>
        <time>2015-10-19T04:47:52Z</time>
      </trkpt>
      <trkpt lat="45.9232" lon="2.94623">
        <ele>862</ele>
        <time>2015-10-19T04:49:52Z</time>
      </trkpt>
      <trkpt lat="45.92267" lon="2.94677">
        <ele>858</ele>
        <time>2015-10-19T04:51:52Z</time>
      </trkpt>
      <trkpt lat="45.92207" lon="2.94732">
        <ele>854</ele>
        <time>2015-10-19T04:53:52Z</time>
      </trkpt>
      <trkpt lat="45.92157" lon="2.94773">
        <ele>851</ele>
        <time>2015-10-19T04:55:52Z</time>
      </trkpt>
      <trkpt lat="45.9214" lon="2.94793">
        <ele>850</ele>
        <time>2015-10-19T04:57:52Z</time>
      </trkpt>
      <trkpt lat="45.92119" lon="2.94822">
        <ele>848</ele>
        <time>2015-10-19T04:59:52Z</time>
      </trkpt>
      <trkpt lat="45.92093" lon="2.94841">
        <ele>848</ele>
        <time>2015-10-19T05:01:52Z</time>
      </trkpt>
      <trkpt lat="45.92066" lon="2.94868">
        <ele>846</ele>
        <time>2015-10-19T05:03:52Z</time>
      </trkpt>
      <trkpt lat="45.92043" lon="2.94904">
        <ele>845</ele>
        <time>2015-10-19T05:05:52Z</time>
      </trkpt>
      <trkpt lat="45.92026" lon="2.94946">
        <ele>844</ele>
        <time>2015-10-19T05:07:52Z</time>
      </trkpt>
      <trkpt lat="45.92012" lon="2.94984">
        <ele>843</ele>
        <time>2015-10-19T05:09:52Z</time>
      </trkpt>
      <trkpt lat="45.92002" lon="2.95037">
        <ele>843</ele>
        <time>2015-10-19T05:11:52Z</time>
      </trkpt>
      <trkpt lat="45.91988" lon="2.95095">
        <ele>843</ele>
        <time>2015-10-19T05:13:52Z</time>
      </trkpt>
      <trkpt lat="45.91977" lon="2.95146">
        <ele>845</ele>
        <time>2015-10-19T05:15:52Z</time>
      </trkpt>
      <trkpt lat="45.91964" lon="2.95199">
        <ele>846</ele>
        <time>2015-10-19T05:17:52Z</time>
      </trkpt>
      <trkpt lat="45.91953" lon="2.95255">
        <ele>847</ele>
        <time>2015-10-19T05:19:52Z</time>
      </trkpt>
      <trkpt lat="45.91943" lon="2.95309">
        <ele>848</ele>
        <time>2015-10-19T05:21:52Z</time>
      </trkpt>
      <trkpt lat="45.91931" lon="2.95344">
        <ele>849</ele>
        <time>2015-10-19T05:23:52Z</time>
      </trkpt>
      <trkpt lat="45.91917" lon="2.9539">
        <ele>850</ele>
        <time>2015-10-19T05:25:52Z</time>
      </trkpt>
      <trkpt lat="45.91904" lon="2.95432">
        <ele>850</ele>
        <time>2015-10-19T05:27:52Z</time>
      </trkpt>
      <trkpt lat="45.91894" lon="2.95471">
        <ele>850</ele>
        <time>2015-10-19T05:29:52Z</time>
      </trkpt>
      <trkpt lat="45.91882" lon="2.95507">
        <ele>850</ele>
        <time>2015-10-19T05:31:52Z</time>
      </trkpt>
      <trkpt lat="45.91865" lon="2.95538">
        <ele>849</ele>
        <time>2015-10-19T05:33:52Z</time>
      </trkpt>
      <trkpt lat="45.91841" lon="2.95574">
        <ele>847</ele>
        <time>2015-10-19T05:35:52Z</time>
      </trkpt>
      <trkpt lat="45.9182" lon="2.95593">
        <ele>846</ele>
        <time>2015-10-19T05:37:52Z</time>
      </trkpt>
      <trkpt lat="45.91798" lon="2.9562">
        <ele>845</ele>
        <time>2015-10-19T05:39:52Z</time>
      </trkpt>
      <trkpt lat="45.91774" lon="2.9566">
        <ele>843</ele>
        <time>2015-10-19T05:41:52Z</time>
      </trkpt>
      <trkpt lat="45.91748" lon="2.95688">
        <ele>841</ele>
        <time>2015-10-19T05:43:52Z</time>
      </trkpt>
      <trkpt lat="45.91727" lon="2.95714">
        <ele>839</ele>
        <time>2015-10-19T05:45:52Z</time>
      </trkpt>
      <trkpt lat="45.91708" lon="2.95732">
        <ele>838</ele>
        <time>2015-10-19T05:47:52Z</time>
      </trkpt>
      <trkpt lat="45.9169" lon="2.9575">
        <ele>837</ele>
        <time>2015-10-19T05:49:52Z</time>
      </trkpt>
      <trkpt lat="45.91658" lon="2.95758">
        <ele>836</ele>
        <time>2015-10-19T05:51:52Z</time>
      </trkpt>
      <trkpt lat="45.91626" lon="2.95774">
        <ele>835</ele>
        <time>2015-10-19T05:53:52Z</time>
      </trkpt>
      <trkpt lat="45.91614" lon="2.95811">
        <ele>836</ele>
        <time>2015-10-19T05:55:52Z</time>
      </trkpt>
      <trkpt lat="45.91599" lon="2.95861">
        <ele>837</ele>
        <time>2015-10-19T05:57:52Z</time>
      </trkpt>
      <trkpt lat="45.91589" lon="2.95911">
        <ele>838</ele>
        <time>2015-10-19T05:59:52Z</time>
      </trkpt>
      <trkpt lat="45.9158" lon="2.9597">
        <ele>839</ele>
        <time>2015-10-19T06:01:52Z</time>
      </trkpt>
      <trkpt lat="45.9157" lon="2.96038">
        <ele>839</ele>
        <time>2015-10-19T06:03:52Z</time>
      </trkpt>
      <trkpt lat="45.91561" lon="2.96078">
        <ele>839</ele>
        <time>2015-10-19T06:05:52Z</time>
      </trkpt>
      <trkpt lat="45.91556" lon="2.9611">
        <ele>837</ele>
        <time>2015-10-19T06:07:52Z</time>
      </trkpt>
      <trkpt lat="45.91554" lon="2.96151">
        <ele>834</ele>
        <time>2015-10-19T06:09:52Z</time>
      </trkpt>
      <trkpt lat="45.91549" lon="2.96193">
        <ele>829</ele>
        <time>2015-10-19T06:11:52Z</time>
      </trkpt>
      <trkpt lat="45.91526" lon="2.96211">
        <ele>826</ele>
        <time>2015-10-19T06:13:52Z</time>
      </trkpt>
      <trkpt lat="45.91499" lon="2.96241">
        <ele>821</ele>
        <time>2015-10-19T06:15:52Z</time>
      </trkpt>
      <trkpt lat="45.91464" lon="2.96287">
        <ele>818</ele>
        <time>2015-10-19T06:17:52Z</time>
      </trkpt>
      <trkpt lat="45.91436" lon="2.96322">
        <ele>816</ele>
        <time>2015-10-19T06:19:52Z</time>
      </trkpt>
      <trkpt lat="45.91443" lon="2.9635">
        <ele>815</ele>
        <time>2015-10-19T06:21:52Z</time>
      </trkpt>
      <trkpt lat="45.91473" lon="2.96331">
        <ele>816</ele>
        <time>2015-10-19T06:23:52Z</time>
      </trkpt>
      <trkpt lat="45.91538" lon="2.96317">
        <ele>818</ele>
        <time>2015-10-19T06:25:52Z</time>
      </trkpt>
      <trkpt lat="45.91567" lon="2.96319">
        <ele>819</ele>
        <time>2015-10-19T06:27:52Z</time>
      </trkpt>
      <trkpt lat="45.91651" lon="2.96308">
        <ele>825</ele>
        <time>2015-10-19T06:29:52Z</time>
      </trkpt>
      <trkpt lat="45.91656" lon="2.96312">
        <ele>825</ele>
        <time>2015-10-19T06:31:52Z</time>
      </trkpt>
      <trkpt lat="45.91662" lon="2.96335">
        <ele>823</ele>
        <time>2015-10-19T06:33:52Z</time>
      </trkpt>
      <trkpt lat="45.91672" lon="2.96351">
        <ele>821</ele>
        <time>2015-10-19T06:35:52Z</time>
      </trkpt>
      <trkpt lat="45.91684" lon="2.96367">
        <ele>821</ele>
        <time>2015-10-19T06:37:52Z</time>
      </trkpt>
      <trkpt lat="45.91703" lon="2.9639">
        <ele>820</ele>
        <time>2015-10-19T06:39:52Z</time>
      </trkpt>
      <trkpt lat="45.91728" lon="2.96412">
        <ele>819</ele>
        <time>2015-10-19T06:41:52Z</time>
      </trkpt>
      <trkpt lat="45.91754" lon="2.96444">
        <ele>818</ele>
        <time>2015-10-19T06:43:52Z</time>
      </trkpt>
      <trkpt lat="45.91776" lon="2.9647">
        <ele>817</ele>
        <time>2015-10-19T06:45:52Z</time>
      </trkpt>
      <trkpt lat="45.91819" lon="2.9651">
        <ele>817</ele>
        <time>2015-10-19T06:47:52Z</time>
      </trkpt>
      <trkpt lat="45.91856" lon="2.96537">
        <ele>815</ele>
        <time>2015-10-19T06:49:52Z</time>
      </trkpt>
      <trkpt lat="45.91871" lon="2.96549">
        <ele>814</ele>
        <time>2015-10-19T06:51:52Z</time>
      </trkpt>
      <trkpt lat="45.91917" lon="2.96527">
        <ele>816</ele>
        <time>2015-10-19T06:53:52Z</time>
      </trkpt>
      <trkpt lat="45.91954" lon="2.96474">
        <ele>818</ele>
        <time>2015-10-19T06:55:52Z</time>
      </trkpt>
      <trkpt lat="45.91971" lon="2.96464">
        <ele>819</ele>
        <time>2015-10-19T06:57:52Z</time>
      </trkpt>
      <trkpt lat="45.92" lon="2.96449">
        <ele>820</ele>
        <time>2015-10-19T06:59:52Z</time>
      </trkpt>
      <trkpt lat="45.92037" lon="2.96426">
        <ele>820</ele>
        <time>2015-10-19T07:01:52Z</time>
      </trkpt>
      <trkpt lat="45.92064" lon="2.96431">
        <ele>818</ele>
        <time>2015-10-19T07:03:52Z</time>
      </trkpt>
      <trkpt lat="45.92076" lon="2.96424">
        <ele>818</ele>
        <time>2015-10-19T07:05:52Z</time>
      </trkpt>
      <trkpt lat="45.9212" lon="2.96425">
        <ele>816</ele>
        <time>2015-10-19T07:07:52Z</time>
      </trkpt>
      <trkpt lat="45.92139" lon="2.96434">
        <ele>814</ele>
        <time>2015-10-19T07:09:52Z</time>
      </trkpt>
      <trkpt lat="45.92167" lon="2.96457">
        <ele>810</ele>
        <time>2015-10-19T07:11:52Z</time>
      </trkpt>
      <trkpt lat="45.92176" lon="2.96475">
        <ele>809</ele>
        <time>2015-10-19T07:13:52Z</time>
      </trkpt>
      <trkpt lat="45.92185" lon="2.96508">
        <ele>805</ele>
        <time>2015-10-19T07:15:52Z</time>
      </trkpt>
      <trkpt lat="45.92192" lon="2.96545">
        <ele>799</ele>
        <time>2015-10-19T07:17:52Z</time>
      </trkpt>
      <trkpt lat="45.92219" lon="2.96601">
        <ele>791</ele>
        <time>2015-10-19T07:19:52Z</time>
      </trkpt>
      <trkpt lat="45.92235" lon="2.96632">
        <ele>786</ele>
        <time>2015-10-19T07:21:52Z</time>
      </trkpt>
      <trkpt lat="45.92247" lon="2.96663">
        <ele>780</ele>
        <time>2015-10-19T07:23:52Z</time>
      </trkpt>
      <trkpt lat="45.92285" lon="2.96698">
        <ele>777</ele>
        <time>2015-10-19T07:25:52Z</time>
      </trkpt>
      <trkpt lat="45.92326" lon="2.96735">
        <ele>775</ele>
        <time>2015-10-19T07:27:52Z</time>
      </trkpt>
      <trkpt lat="45.92343" lon="2.96722">
        <ele>779</ele>
        <time>2015-10-19T07:29:52Z</time>
      </trkpt>
      <trkpt lat="45.92366" lon="2.96714">
        <ele>783</ele>
        <time>2015-10-19T07:31:52Z</time>
      </trkpt>
      <trkpt lat="45.92387" lon="2.96725">
        <ele>784</ele>
        <time>2015-10-19T07:33:52Z</time>
      </trkpt>
      <trkpt lat="45.92412" lon="2.9673">
        <ele>786</ele>
        <time>2015-10-19T07:35:52Z</time>
      </trkpt>
      <trkpt lat="45.92447" lon="2.96726">
        <ele>790</ele>
        <time>2015-10-19T07:37:52Z</time>
      </trkpt>
      <trkpt lat="45.92492" lon="2.96728">
        <ele>794</ele>
        <time>2015-10-19T07:39:52Z</time>
      </trkpt>
      <trkpt lat="45.92516" lon="2.96742">
        <ele>795</ele>
        <time>2015-10-19T07:41:52Z</time>
      </trkpt>
      <trkpt lat="45.92525" lon="2.96765">
        <ele>794</ele>
        <time>2015-10-19T07:43:52Z</time>
      </trkpt>
      <trkpt lat="45.92542" lon="2.96819">
        <ele>793</ele>
        <time>2015-10-19T07:45:52Z</time>
      </trkpt>
      <trkpt lat="45.92543" lon="2.96798">
        <ele>795</ele>
        <time>2015-10-19T07:47:52Z</time>
      </trkpt>
      <trkpt lat="45.92554" lon="2.96772">
        <ele>798</ele>
        <time>2015-10-19T07:49:52Z</time>
      </trkpt>
      <trkpt lat="45.92564" lon="2.96762">
        <ele>801</ele>
        <time>2015-10-19T07:51:52Z</time>
      </trkpt>
      <trkpt lat="45.92594" lon="2.96753">
        <ele>807</ele>
        <time>2015-10-19T07:53:52Z</time>
      </trkpt>
      <trkpt lat="45.92609" lon="2.96731">
        <ele>811</ele>
        <time>2015-10-19T07:55:52Z</time>
      </trkpt>
      <trkpt lat="45.92637" lon="2.96687">
        <ele>819</ele>
        <time>2015-10-19T07:57:52Z</time>
      </trkpt>
      <trkpt lat="45.92652" lon="2.9666">
        <ele>823</ele>
        <time>2015-10-19T07:59:52Z</time>
      </trkpt>
      <trkpt lat="45.92659" lon="2.9663">
        <ele>826</ele>
        <time>2015-10-19T08:01:52Z</time>
      </trkpt>
      <trkpt lat="45.92673" lon="2.9656">
        <ele>832</ele>
        <time>2015-10-19T08:03:52Z</time>
      </trkpt>
      <trkpt lat="45.92687" lon="2.96531">
        <ele>837</ele>
        <time>2015-10-19T08:05:52Z</time>
      </trkpt>
      <trkpt lat="45.92708" lon="2.96485">
        <ele>844</ele>
        <time>2015-10-19T08:07:52Z</time>
      </trkpt>
      <trkpt lat="45.92728" lon="2.96434">
        <ele>848</ele>
        <time>2015-10-19T08:09:52Z</time>
      </trkpt>
      <trkpt lat="45.92731" lon="2.9646">
        <ele>848</ele>
        <time>2015-10-19T08:11:52Z</time>
      </trkpt>
      <trkpt lat="45.92738" lon="2.9649">
        <ele>848</ele>
        <time>2015-10-19T08:13:52Z</time>
      </trkpt>
      <trkpt lat="45.92741" lon="2.96517">
        <ele>847</ele>
        <time>2015-10-19T08:15:52Z</time>
      </trkpt>
      <trkpt lat="45.92741" lon="2.96542">
        <ele>846</ele>
        <time>2015-10-19T08:17:52Z</time>
      </trkpt>
      <trkpt lat="45.92747" lon="2.96574">
        <ele>846</ele>
        <time>2015-10-19T08:19:52Z</time>
      </trkpt>
      <trkpt lat="45.92762" lon="2.96616">
        <ele>845</ele>
        <time>2015-10-19T08:21:52Z</time>
      </trkpt>
      <trkpt lat="45.92792" lon="2.96657">
        <ele>844</ele>
        <time>2015-10-19T08:23:52Z</time>
      </trkpt>
      <trkpt lat="45.92814" lon="2.96685">
        <ele>842</ele>
        <time>2015-10-19T08:25:52Z</time>
      </trkpt>
      <trkpt lat="45.92878" lon="2.96748">
        <ele>837</ele>
        <time>2015-10-19T08:27:52Z</time>
      </trkpt>
      <trkpt lat="45.92937" lon="2.96823">
        <ele>833</ele>
        <time>2015-10-19T08:29:52Z</time>
      </trkpt>
      <trkpt lat="45.92952" lon="2.96848">
        <ele>833</ele>
        <time>2015-10-19T08:31:52Z</time>
      </trkpt>
      <trkpt lat="45.92985" lon="2.96815">
        <ele>833</ele>
        <time>2015-10-19T08:33:52Z</time>
      </trkpt>
      <trkpt lat="45.93035" lon="2.9675">
        <ele>830</ele>
        <time>2015-10-19T08:35:52Z</time>
      </trkpt>
      <trkpt lat="45.93056" lon="2.96727">
        <ele>829</ele>
        <time>2015-10-19T08:37:52Z</time>
      </trkpt>
      <trkpt lat="45.93069" lon="2.96728">
        <ele>828</ele>
        <time>2015-10-19T08:39:52Z</time>
      </trkpt>
      <trkpt lat="45.9308" lon="2.96744">
        <ele>827</ele>
        <time>2015-10-19T08:41:52Z</time>
      </trkpt>
      <trkpt lat="45.93093" lon="2.96749">
        <ele>826</ele>
        <time>2015-10-19T08:43:52Z</time>
      </trkpt>
      <trkpt lat="45.93173" lon="2.96722">
        <ele>822</ele>
        <time>2015-10-19T08:45:52Z</time>
      </trkpt>
      <trkpt lat="45.93197" lon="2.96725">
        <ele>820</ele>
        <time>2015-10-19T08:47:52Z</time>
      </trkpt>
      <trkpt lat="45.93229" lon="2.96748">
        <ele>817</ele>
        <time>2015-10-19T08:49:52Z</time>
      </trkpt>
      <trkpt lat="45.93277" lon="2.9677">
        <ele>814</ele>
        <time>2015-10-19T08:51:52Z</time>
      </trkpt>
      <trkpt lat="45.93317" lon="2.96799">
        <ele>812</ele>
        <time>2015-10-19T08:53:52Z</time>
      </trkpt>
      <trkpt lat="45.9335" lon="2.96801">
        <ele>810</ele>
        <time>2015-10-19T08:55:52Z</time>
      </trkpt>
      <trkpt lat="45.93376" lon="2.96799">
        <ele>808</ele>
        <time>2015-10-19T08:57:52Z</time>
      </trkpt>
      <trkpt lat="45.93406" lon="2.96794">
        <ele>807</ele>
        <time>2015-10-19T08:59:52Z</time>
      </trkpt>
      <trkpt lat="45.93453" lon="2.96849">
        <ele>804</ele>
        <time>2015-10-19T09:01:52Z</time>
      </trkpt>
      <trkpt lat="45.93501" lon="2.96906">
        <ele>802</ele>
        <time>2015-10-19T09:03:52Z</time>
      </trkpt>
      <trkpt lat="45.93528" lon="2.96935">
        <ele>801</ele>
        <time>2015-10-19T09:05:52Z</time>
      </trkpt>
      <trkpt lat="45.93553" lon="2.96974">
        <ele>801</ele>
        <time>2015-10-19T09:07:52Z</time>
      </trkpt>
      <trkpt lat="45.93575" lon="2.96991">
        <ele>800</ele>
        <time>2015-10-19T09:09:52Z</time>
      </trkpt>
      <trkpt lat="45.93605" lon="2.97045">
        <ele>800</ele>
        <time>2015-10-19T09:11:52Z</time>
      </trkpt>
      <trkpt lat="45.93632" lon="2.97116">
        <ele>800</ele>
        <time>2015-10-19T09:13:52Z</time>
      </trkpt>
      <trkpt lat="45.93645" lon="2.97157">
        <ele>799</ele>
        <time>2015-10-19T09:15:52Z</time>
      </trkpt>
      <trkpt lat="45.93651" lon="2.97212">
        <ele>799</ele>
        <time>2015-10-19T09:17:52Z</time>
      </trkpt>
      <trkpt lat="45.93676" lon="2.97198">
        <ele>796</ele>
        <time>2015-10-19T09:19:52Z</time>
      </trkpt>
      <trkpt lat="45.93692" lon="2.97192">
        <ele>795</ele>
        <time>2015-10-19T09:21:52Z</time>
      </trkpt>
      <trkpt lat="45.93746" lon="2.97193">
        <ele>792</ele>
        <time>2015-10-19T09:23:52Z</time>
      </trkpt>
      <trkpt lat="45.93765" lon="2.97199">
        <ele>791</ele>
        <time>2015-10-19T09:25:52Z</time>
      </trkpt>
      <trkpt lat="45.93771" lon="2.97223">
        <ele>791</ele>
        <time>2015-10-19T09:27:52Z</time>
      </trkpt>
      <trkpt lat="45.93804" lon="2.97256">
        <ele>791</ele>
        <time>2015-10-19T09:29:52Z</time>
      </trkpt>
      <trkpt lat="45.93863" lon="2.97307">
        <ele>790</ele>
        <time>2015-10-19T09:31:52Z</time>
      </trkpt>
      <trkpt lat="45.93894" lon="2.97342">
        <ele>790</ele>
        <time>2015-10-19T09:33:52Z</time>
      </trkpt>
      <trkpt lat="45.93941" lon="2.97383">
        <ele>790</ele>
        <time>2015-10-19T09:35:52Z</time>
      </trkpt>
      <trkpt lat="45.93973" lon="2.97443">
        <ele>789</ele>
        <time>2015-10-19T09:37:52Z</time>
      </trkpt>
      <trkpt lat="45.9401" lon="2.9749">
        <ele>787</ele>
        <time>2015-10-19T09:39:52Z</time>
      </trkpt>
      <trkpt lat="45.94039" lon="2.97517">
        <ele>785</ele>
        <time>2015-10-19T09:41:52Z</time>
      </trkpt>
      <trkpt lat="45.94064" lon="2.9754">
        <ele>784</ele>
        <time>2015-10-19T09:43:52Z</time>
      </trkpt>
      <trkpt lat="45.941" lon="2.97568">
        <ele>783</ele>
        <time>2015-10-19T09:45:52Z</time>
      </trkpt>
      <trkpt lat="45.94153" lon="2.97618">
        <ele>780</ele>
        <time>2015-10-19T09:47:52Z</time>
      </trkpt>
      <trkpt lat="45.94176" lon="2.97646">
        <ele>778</ele>
        <time>2015-10-19T09:49:52Z</time>
      </trkpt>
      <trkpt lat="45.94249" lon="2.97676">
        <ele>774</ele>
        <time>2015-10-19T09:51:52Z</time>
      </trkpt>
      <trkpt lat="45.94295" lon="2.97698">
        <ele>771</ele>
        <time>2015-10-19T09:53:52Z</time>
      </trkpt>
      <trkpt lat="45.94334" lon="2.97713">
        <ele>770</ele>
        <time>2015-10-19T09:55:52Z</time>
      </trkpt>
      <trkpt lat="45.94379" lon="2.97726">
        <ele>772</ele>
        <time>2015-10-19T09:57:52Z</time>
      </trkpt>
      <trkpt lat="45.94404" lon="2.97749">
        <ele>772</ele>
        <time>2015-10-19T09:59:52Z</time>
      </trkpt>
      <trkpt lat="45.94428" lon="2.97778">
        <ele>769</ele>
        <time>2015-10-19T10:01:52Z</time>
      </trkpt>
      <trkpt lat="45.94469" lon="2.97813">
        <ele>766</ele>
        <time>2015-10-19T10:03:52Z</time>
      </trkpt>
      <trkpt lat="45.94489" lon="2.97838">
        <ele>764</ele>
        <time>2015-10-19T10:05:52Z</time>
      </trkpt>
      <trkpt lat="45.9451" lon="2.97857">
        <ele>764</ele>
        <time>2015-10-19T10:07:52Z</time>
      </trkpt>
      <trkpt lat="45.94524" lon="2.9792">
        <ele>761</ele>
        <time>2015-10-19T10:09:52Z</time>
      </trkpt>
      <trkpt lat="45.94529" lon="2.97979">
        <ele>757</ele>
        <time>2015-10-19T10:11:52Z</time>
      </trkpt>
      <trkpt lat="45.94538" lon="2.98028">
        <ele>755</ele>
        <time>2015-10-19T10:13:52Z</time>
      </trkpt>
      <trkpt lat="45.94551" lon="2.98067">
        <ele>753</ele>
        <time>2015-10-19T10:15:52Z</time>
      </trkpt>
      <trkpt lat="45.9456" lon="2.98119">
        <ele>752</ele>
        <time>2015-10-19T10:17:52Z</time>
      </trkpt>
      <trkpt lat="45.94565" lon="2.98179">
        <ele>751</ele>
        <time>2015-10-19T10:19:52Z</time>
      </trkpt>
      <trkpt lat="45.94566" lon="2.98223">
        <ele>750</ele>
        <time>2015-10-19T10:21:52Z</time>
      </trkpt>
      <trkpt lat="45.9456" lon="2.98288">
        <ele>748</ele>
        <time>2015-10-19T10:23:52Z</time>
      </trkpt>
      <trkpt lat="45.94559" lon="2.98344">
        <ele>747</ele>
        <time>2015-10-19T10:25:52Z</time>
      </trkpt>
      <trkpt lat="45.94566" lon="2.98377">
        <ele>747</ele>
        <time>2015-10-19T10:27:52Z</time>
      </trkpt>
      <trkpt lat="45.94509" lon="2.98511">
        <ele>743</ele>
        <time>2015-10-19T10:29:52Z</time>
      </trkpt>
      <trkpt lat="45.94541" lon="2.98527">
        <ele>743</ele>
        <time>2015-10-19T10:31:52Z</time>
      </trkpt>
      <trkpt lat="45.94558" lon="2.98536">
        <ele>744</ele>
        <time>2015-10-19T10:33:52Z</time>
      </trkpt>
      <trkpt lat="45.94566" lon="2.98553">
        <ele>743</ele>
        <time>2015-10-19T10:35:52Z</time>
      </trkpt>
      <trkpt lat="45.9457" lon="2.98579">
        <ele>743</ele>
        <time>2015-10-19T10:37:52Z</time>
      </trkpt>
      <trkpt lat="45.94584" lon="2.98606">
        <ele>743</ele>
        <time>2015-10-19T10:39:52Z</time>
      </trkpt>
      <trkpt lat="45.94613" lon="2.98638">
        <ele>740</ele>
        <time>2015-10-19T10:41:52Z</time>
      </trkpt>
      <trkpt lat="45.9467" lon="2.98707">
        <ele>736</ele>
        <time>2015-10-19T10:43:52Z</time>
      </trkpt>
      <trkpt lat="45.94701" lon="2.98757">
        <ele>735</ele>
        <time>2015-10-19T10:45:52Z</time>
      </trkpt>
      <trkpt lat="45.94743" lon="2.98816">
        <ele>730</ele>
        <time>2015-10-19T10:47:52Z</time>
      </trkpt>
      <trkpt lat="45.94765" lon="2.98834">
        <ele>728</ele>
        <time>2015-10-19T10:49:52Z</time>
      </trkpt>
      <trkpt lat="45.94807" lon="2.9885">
        <ele>727</ele>
        <time>2015-10-19T10:51:52Z</time>
      </trkpt>
      <trkpt lat="45.94823" lon="2.98867">
        <ele>726</ele>
        <time>2015-10-19T10:53:52Z</time>
      </trkpt>
      <trkpt lat="45.94839" lon="2.98908">
        <ele>725</ele>
        <time>2015-10-19T10:55:52Z</time>
      </trkpt>
      <trkpt lat="45.94851" lon="2.98956">
        <ele>723</ele>
        <time>2015-10-19T10:57:52Z</time>
      </trkpt>
      <trkpt lat="45.94894" lon="2.98985">
        <ele>717</ele>
        <time>2015-10-19T10:59:52Z</time>
      </trkpt>
      <trkpt lat="45.94904" lon="2.98964">
        <ele>716</ele>
        <time>2015-10-19T11:01:52Z</time>
      </trkpt>
      <trkpt lat="45.94917" lon="2.98967">
        <ele>715</ele>
        <time>2015-10-19T11:03:52Z</time>
      </trkpt>
      <trkpt lat="45.94931" lon="2.98975">
        <ele>714</ele>
        <time>2015-10-19T11:05:52Z</time>
      </trkpt>
      <trkpt lat="45.94946" lon="2.98993">
        <ele>713</ele>
        <time>2015-10-19T11:07:52Z</time>
      </trkpt>
      <trkpt lat="45.94954" lon="2.9901">
        <ele>712</ele>
        <time>2015-10-19T11:09:52Z</time>
      </trkpt>
      <trkpt lat="45.94976" lon="2.99015">
        <ele>711</ele>
        <time>2015-10-19T11:11:52Z</time>
      </trkpt>
      <trkpt lat="45.94993" lon="2.99035">
        <ele>710</ele>
        <time>2015-10-19T11:13:52Z</time>
      </trkpt>
      <trkpt lat="45.95001" lon="2.99065">
        <ele>708</ele>
        <time>2015-10-19T11:15:52Z</time>
      </trkpt>
      <trkpt lat="45.95033" lon="2.9907">
        <ele>710</ele>
        <time>2015-10-19T11:17:52Z</time>
      </trkpt>
      <trkpt lat="45.9506" lon="2.99081">
        <ele>711</ele>
        <time>2015-10-19T11:19:52Z</time>
      </trkpt>
      <trkpt lat="45.95082" lon="2.99097">
        <ele>711</ele>
        <time>2015-10-19T11:21:52Z</time>
      </trkpt>
      <trkpt lat="45.95112" lon="2.99115">
        <ele>712</ele>
        <time>2015-10-19T11:23:52Z</time>
      </trkpt>
      <trkpt lat="45.95127" lon="2.99151">
        <ele>712</ele>
        <time>2015-10-19T11:25:52Z</time>
      </trkpt>
      <trkpt lat="45.95139" lon="2.99182">
        <ele>711</ele>
        <time>2015-10-19T11:27:52Z</time>
      </trkpt>
      <trkpt lat="45.9515" lon="2.99224">
        <ele>711</ele>
        <time>2015-10-19T11:29:52Z</time>
      </trkpt>
      <trkpt lat="45.95152" lon="2.99273">
        <ele>711</ele>
        <time>2015-10-19T11:31:52Z</time>
      </trkpt>
      <trkpt lat="45.95154" lon="2.99324">
        <ele>710</ele>
        <time>2015-10-19T11:33:52Z</time>
      </trkpt>
      <trkpt lat="45.95166" lon="2.99377">
        <ele>710</ele>
        <time>2015-10-19T11:35:52Z</time>
      </trkpt>
      <trkpt lat="45.95179" lon="2.99432">
        <ele>710</ele>
        <time>2015-10-19T11:37:52Z</time>
      </trkpt>
      <trkpt lat="45.95194" lon="2.99485">
        <ele>708</ele>
        <time>2015-10-19T11:39:52Z</time>
      </trkpt>
      <trkpt lat="45.95198" lon="2.99544">
        <ele>706</ele>
        <time>2015-10-19T11:41:52Z</time>
      </trkpt>
      <trkpt lat="45.95197" lon="2.99635">
        <ele>701</ele>
        <time>2015-10-19T11:43:52Z</time>
      </trkpt>
      <trkpt lat="45.95204" lon="2.99708">
        <ele>699</ele>
        <time>2015-10-19T11:45:52Z</time>
      </trkpt>
      <trkpt lat="45.95212" lon="2.99761">
        <ele>698</ele>
        <time>2015-10-19T11:47:52Z</time>
      </trkpt>
      <trkpt lat="45.95219" lon="2.99817">
        <ele>697</ele>
        <time>2015-10-19T11:49:52Z</time>
      </trkpt>
      <trkpt lat="45.95238" lon="2.99857">
        <ele>697</ele>
        <time>2015-10-19T11:51:52Z</time>
      </trkpt>
      <trkpt lat="45.9525" lon="2.99887">
        <ele>695</ele>
        <time>2015-10-19T11:53:52Z</time>
      </trkpt>
      <trkpt lat="45.95268" lon="2.99923">
        <ele>694</ele>
        <time>2015-10-19T11:55:52Z</time>
      </trkpt>
      <trkpt lat="45.95283" lon="2.99972">
        <ele>694</ele>
        <time>2015-10-19T11:57:52Z</time>
      </trkpt>
      <trkpt lat="45.95292" lon="3.00002">
        <ele>694</ele>
        <time>2015-10-19T11:59:52Z</time>
      </trkpt>
      <trkpt lat="45.95296" lon="3.00047">
        <ele>694</ele>
        <time>2015-10-19T12:01:52Z</time>
      </trkpt>
      <trkpt lat="45.95305" lon="3.00084">
        <ele>695</ele>
        <time>2015-10-19T12:03:52Z</time>
      </trkpt>
      <trkpt lat="45.95306" lon="3.00124">
        <ele>696</ele>
        <time>2015-10-19T12:05:52Z</time>
      </trkpt>
      <trkpt lat="45.95298" lon="3.00152">
        <ele>697</ele>
        <time>2015-10-19T12:07:52Z</time>
      </trkpt>
      <trkpt lat="45.95283" lon="3.00174">
        <ele>698</ele>
        <time>2015-10-19T12:09:52Z</time>
      </trkpt>
      <trkpt lat="45.95259" lon="3.00211">
        <ele>700</ele>
        <time>2015-10-19T12:11:52Z</time>
      </trkpt>
      <trkpt lat="45.95257" lon="3.00247">
        <ele>702</ele>
        <time>2015-10-19T12:13:52Z</time>
      </trkpt>
      <trkpt lat="45.95254" lon="3.00302">
        <ele>704</ele>
        <time>2015-10-19T12:15:52Z</time>
      </trkpt>
      <trkpt lat="45.95258" lon="3.00346">
        <ele>706</ele>
        <time>2015-10-19T12:17:52Z</time>
      </trkpt>
      <trkpt lat="45.95269" lon="3.00379">
        <ele>706</ele>
        <time>2015-10-19T12:19:52Z</time>
      </trkpt>
      <trkpt lat="45.95277" lon="3.00404">
        <ele>706</ele>
        <time>2015-10-19T12:21:52Z</time>
      </trkpt>
      <trkpt lat="45.95297" lon="3.0043">
        <ele>706</ele>
        <time>2015-10-19T12:23:52Z</time>
      </trkpt>
      <trkpt lat="45.95311" lon="3.00452">
        <ele>707</ele>
        <time>2015-10-19T12:25:52Z</time>
      </trkpt>
      <trkpt lat="45.95333" lon="3.00543">
        <ele>710</ele>
        <time>2015-10-19T12:27:52Z</time>
      </trkpt>
      <trkpt lat="45.95353" lon="3.00639">
        <ele>711</ele>
        <time>2015-10-19T12:29:52Z</time>
      </trkpt>
      <trkpt lat="45.95406" lon="3.00629">
        <ele>711</ele>
        <time>2015-10-19T12:31:52Z</time>
      </trkpt>
      <trkpt lat="45.95435" lon="3.00611">
        <ele>711</ele>
        <time>2015-10-19T12:33:52Z</time>
      </trkpt>
      <trkpt lat="45.95475" lon="3.00596">
        <ele>711</ele>
        <time>2015-10-19T12:35:52Z</time>
      </trkpt>
      <trkpt lat="45.95527" lon="3.00575">
        <ele>711</ele>
        <time>2015-10-19T12:37:52Z</time>
      </trkpt>
      <trkpt lat="45.95553" lon="3.00568">
        <ele>710</ele>
        <time>2015-10-19T12:39:52Z</time>
      </trkpt>
      <trkpt lat="45.95593" lon="3.00557">
        <ele>710</ele>
        <time>2015-10-19T12:41:52Z</time>
      </trkpt>
      <trkpt lat="45.95626" lon="3.00564">
        <ele>711</ele>
        <time>2015-10-19T12:43:52Z</time>
      </trkpt>
      <trkpt lat="45.95653" lon="3.00572">
        <ele>712</ele>
        <time>2015-10-19T12:45:52Z</time>
      </trkpt>
      <trkpt lat="45.95673" lon="3.00577">
        <ele>712</ele>
        <time>2015-10-19T12:47:52Z</time>
      </trkpt>
      <trkpt lat="45.95706" lon="3.0055">
        <ele>712</ele>
        <time>2015-10-19T12:49:52Z</time>
      </trkpt>
      <trkpt lat="45.95731" lon="3.00527">
        <ele>713</ele>
        <time>2015-10-19T12:51:52Z</time>
      </trkpt>
      <trkpt lat="45.95769" lon="3.00521">
        <ele>714</ele>
        <time>2015-10-19T12:53:52Z</time>
      </trkpt>
      <trkpt lat="45.95804" lon="3.00511">
        <ele>713</ele>
        <time>2015-10-19T12:55:52Z</time>
      </trkpt>
      <trkpt lat="45.95841" lon="3.00493">
        <ele>713</ele>
        <time>2015-10-19T12:57:52Z</time>
      </trkpt>
      <trkpt lat="45.95881" lon="3.00473">
        <ele>714</ele>
        <time>2015-10-19T12:59:52Z</time>
      </trkpt>
      <trkpt lat="45.95874" lon="3.00417">
        <ele>716</ele>
        <time>2015-10-19T13:01:52Z</time>
      </trkpt>
      <trkpt lat="45.95871" lon="3.00247">
        <ele>721</ele>
        <time>2015-10-19T13:03:52Z</time>
      </trkpt>
      <trkpt lat="45.95864" lon="3.00091">
        <ele>724</ele>
        <time>2015-10-19T13:05:52Z</time>
      </trkpt>
      <trkpt lat="45.95857" lon="2.99988">
        <ele>721</ele>
        <time>2015-10-19T13:07:52Z</time>
      </trkpt>
      <trkpt lat="45.95918" lon="2.99973">
        <ele>725</ele>
        <time>2015-10-19T13:09:52Z</time>
      </trkpt>
      <trkpt lat="45.95928" lon="2.99965">
        <ele>725</ele>
        <time>2015-10-19T13:11:52Z</time>
      </trkpt>
      <trkpt lat="45.95922" lon="2.99761">
        <ele>721</ele>
        <time>2015-10-19T13:13:52Z</time>
      </trkpt>
      <trkpt lat="45.9592" lon="2.99712">
        <ele>721</ele>
        <time>2015-10-19T13:15:52Z</time>
      </trkpt>
      <trkpt lat="45.95924" lon="2.99662">
        <ele>721</ele>
        <time>2015-10-19T13:17:52Z</time>
      </trkpt>
      <trkpt lat="45.95933" lon="2.99625">
        <ele>724</ele>
        <time>2015-10-19T13:19:52Z</time>
      </trkpt>
      <trkpt lat="45.95929" lon="2.99599">
        <ele>726</ele>
        <time>2015-10-19T13:21:52Z</time>
      </trkpt>
      <trkpt lat="45.95909" lon="2.99556">
        <ele>729</ele>
        <time>2015-10-19T13:23:52Z</time>
      </trkpt>
      <trkpt lat="45.959" lon="2.99531">
        <ele>731</ele>
        <time>2015-10-19T13:25:52Z</time>
      </trkpt>
      <trkpt lat="45.95876" lon="2.99465">
        <ele>734</ele>
        <time>2015-10-19T13:27:52Z</time>
      </trkpt>
      <trkpt lat="45.95841" lon="2.99385">
        <ele>737</ele>
        <time>2015-10-19T13:29:52Z</time>
      </trkpt>
      <trkpt lat="45.95819" lon="2.99305">
        <ele>740</ele>
        <time>2015-10-19T13:31:52Z</time>
      </trkpt>
      <trkpt lat="45.95817" lon="2.99242">
        <ele>741</ele>
        <time>2015-10-19T13:33:52Z</time>
      </trkpt>
      <trkpt lat="45.95825" lon="2.99196">
        <ele>743</ele>
        <time>2015-10-19T13:35:52Z</time>
      </trkpt>
      <trkpt lat="45.95833" lon="2.99173">
        <ele>744</ele>
        <time>2015-10-19T13:37:52Z</time>
      </trkpt>
      <trkpt lat="45.95832" lon="2.99115">
        <ele>745</ele>
        <time>2015-10-19T13:39:52Z</time>
      </trkpt>
      <trkpt lat="45.95843" lon="2.99104">
        <ele>746</ele>
        <time>2015-10-19T13:41:52Z</time>
      </trkpt>
      <trkpt lat="45.95885" lon="2.99123">
        <ele>745</ele>
        <time>2015-10-19T13:43:52Z</time>
      </trkpt>
      <trkpt lat="45.95918" lon="2.99142">
        <ele>745</ele>
        <time>2015-10-19T13:45:52Z</time>
      </trkpt>
      <trkpt lat="45.95974" lon="2.9917">
        <ele>744</ele>
        <time>2015-10-19T13:47:52Z</time>
      </trkpt>
      <trkpt lat="45.96031" lon="2.99179">
        <ele>742</ele>
        <time>2015-10-19T13:49:52Z</time>
      </trkpt>
      <trkpt lat="45.96076" lon="2.99193">
        <ele>741</ele>
        <time>2015-10-19T13:51:52Z</time>
      </trkpt>
      <trkpt lat="45.96111" lon="2.99201">
        <ele>741</ele>
        <time>2015-10-19T13:53:52Z</time>
      </trkpt>
      <trkpt lat="45.96151" lon="2.99227">
        <ele>739</ele>
        <time>2015-10-19T13:55:52Z</time>
      </trkpt>
      <trkpt lat="45.96256" lon="2.99282">
        <ele>737</ele>
        <time>2015-10-19T13:57:52Z</time>
      </trkpt>
      <trkpt lat="45.96367" lon="2.99336">
        <ele>735</ele>
        <time>2015-10-19T13:59:52Z</time>
      </trkpt>
      <trkpt lat="45.96415" lon="2.9935">
        <ele>735</ele>
        <time>2015-10-19T14:01:52Z</time>
      </trkpt>
      <trkpt lat="45.96463" lon="2.99303">
        <ele>732</ele>
        <time>2015-10-19T14:03:52Z</time>
      </trkpt>
      <trkpt lat="45.96478" lon="2.99279">
        <ele>730</ele>
        <time>2015-10-19T14:05:52Z</time>
      </trkpt>
      <trkpt lat="45.96489" lon="2.99246">
        <ele>727</ele>
        <time>2015-10-19T14:07:52Z</time>
      </trkpt>
      <trkpt lat="45.96509" lon="2.99181">
        <ele>722</ele>
        <time>2015-10-19T14:09:52Z</time>
      </trkpt>
      <trkpt lat="45.96521" lon="2.99105">
        <ele>714</ele>
        <time>2015-10-19T14:11:52Z</time>
      </trkpt>
      <trkpt lat="45.96535" lon="2.99029">
        <ele>707</ele>
        <time>2015-10-19T14:13:52Z</time>
      </trkpt>
      <trkpt lat="45.96544" lon="2.98952">
        <ele>701</ele>
        <time>2015-10-19T14:15:52Z</time>
      </trkpt>
      <trkpt lat="45.96542" lon="2.98907">
        <ele>699</ele>
        <time>2015-10-19T14:17:52Z</time>
      </trkpt>
      <trkpt lat="45.9653" lon="2.98873">
        <ele>698</ele>
        <time>2015-10-19T14:19:52Z</time>
      </trkpt>
      <trkpt lat="45.96517" lon="2.98844">
        <ele>697</ele>
        <time>2015-10-19T14:21:52Z</time>
      </trkpt>
      <trkpt lat="45.96511" lon="2.98829">
        <ele>697</ele>
        <time>2015-10-19T14:23:52Z</time>
      </trkpt>
      <trkpt lat="45.96517" lon="2.98795">
        <ele>695</ele>
        <time>2015-10-19T14:25:52Z</time>
      </trkpt>
      <trkpt lat="45.96537" lon="2.98783">
        <ele>695</ele>
        <time>2015-10-19T14:27:52Z</time>
      </trkpt>
      <trkpt lat="45.96586" lon="2.98751">
        <ele>693</ele>
        <time>2015-10-19T14:29:52Z</time>
      </trkpt>
      <trkpt lat="45.96629" lon="2.98717">
        <ele>691</ele>
        <time>2015-10-19T14:31:52Z</time>
      </trkpt>
      <trkpt lat="45.96674" lon="2.98694">
        <ele>689</ele>
        <time>2015-10-19T14:33:52Z</time>
      </trkpt>
      <trkpt lat="45.96709" lon="2.98615">
        <ele>686</ele>
        <time>2015-10-19T14:35:52Z</time>
      </trkpt>
      <trkpt lat="45.96766" lon="2.98487">
        <ele>685</ele>
        <time>2015-10-19T14:37:52Z</time>
      </trkpt>
      <trkpt lat="45.96815" lon="2.98378">
        <ele>685</ele>
        <time>2015-10-19T14:39:52Z</time>
      </trkpt>
      <trkpt lat="45.96843" lon="2.98352">
        <ele>685</ele>
        <time>2015-10-19T14:41:52Z</time>
      </trkpt>
      <trkpt lat="45.96863" lon="2.98343">
        <ele>684</ele>
        <time>2015-10-19T14:43:52Z</time>
      </trkpt>
      <trkpt lat="45.96894" lon="2.9833">
        <ele>682</ele>
        <time>2015-10-19T14:45:52Z</time>
      </trkpt>
      <trkpt lat="45.96926" lon="2.98328">
        <ele>681</ele>
        <time>2015-10-19T14:47:52Z</time>
      </trkpt>
      <trkpt lat="45.96929" lon="2.9831">
        <ele>681</ele>
        <time>2015-10-19T14:49:52Z</time>
      </trkpt>
      <trkpt lat="45.9691" lon="2.98256">
        <ele>683</ele>
        <time>2015-10-19T14:51:52Z</time>
      </trkpt>
      <trkpt lat="45.96891" lon="2.98201">
        <ele>681</ele>
        <time>2015-10-19T14:53:52Z</time>
      </trkpt>
      <trkpt lat="45.96856" lon="2.98182">
        <ele>681</ele>
        <time>2015-10-19T14:55:52Z</time>
      </trkpt>
      <trkpt lat="45.96829" lon="2.98168">
        <ele>681</ele>
        <time>2015-10-19T14:57:52Z</time>
      </trkpt>
      <trkpt lat="45.96771" lon="2.98157">
        <ele>683</ele>
        <time>2015-10-19T14:59:52Z</time>
      </trkpt>
      <trkpt lat="45.96725" lon="2.98116">
        <ele>683</ele>
        <time>2015-10-19T15:01:52Z</time>
      </trkpt>
      <trkpt lat="45.96741" lon="2.98109">
        <ele>682</ele>
        <time>2015-10-19T15:03:52Z</time>
      </trkpt>
      <trkpt lat="45.96752" lon="2.98098">
        <ele>681</ele>
        <time>2015-10-19T15:05:52Z</time>
      </trkpt>
      <trkpt lat="45.96781" lon="2.98049">
        <ele>679</ele>
        <time>2015-10-19T15:07:52Z</time>
      </trkpt>
      <trkpt lat="45.96904" lon="2.97916">
        <ele>680</ele>
        <time>2015-10-19T15:09:52Z</time>
      </trkpt>
      <trkpt lat="45.96946" lon="2.97896">
        <ele>680</ele>
        <time>2015-10-19T15:11:52Z</time>
      </trkpt>
      <trkpt lat="45.96945" lon="2.97866">
        <ele>679</ele>
        <time>2015-10-19T15:13:52Z</time>
      </trkpt>
      <trkpt lat="45.9696" lon="2.97853">
        <ele>679</ele>
        <time>2015-10-19T15:15:52Z</time>
      </trkpt>
      <trkpt lat="45.96988" lon="2.97867">
        <ele>680</ele>
        <time>2015-10-19T15:17:52Z</time>
      </trkpt>
      <trkpt lat="45.97036" lon="2.97823">
        <ele>679</ele>
        <time>2015-10-19T15:19:52Z</time>
      </trkpt>
      <trkpt lat="45.97064" lon="2.97794">
        <ele>678</ele>
        <time>2015-10-19T15:21:52Z</time>
      </trkpt>
      <trkpt lat="45.97104" lon="2.97772">
        <ele>676</ele>
        <time>2015-10-19T15:23:52Z</time>
      </trkpt>
      <trkpt lat="45.97127" lon="2.97746">
        <ele>674</ele>
        <time>2015-10-19T15:25:52Z</time>
      </trkpt>
      <trkpt lat="45.97153" lon="2.97715">
        <ele>673</ele>
        <time>2015-10-19T15:27:52Z</time>
      </trkpt>
      <trkpt lat="45.9718" lon="2.97712">
        <ele>671</ele>
        <time>2015-10-19T15:29:52Z</time>
      </trkpt>
      <trkpt lat="45.97226" lon="2.97677">
        <ele>668</ele>
        <time>2015-10-19T15:31:52Z</time>
      </trkpt>
      <trkpt lat="45.97254" lon="2.97653">
        <ele>667</ele>
        <time>2015-10-19T15:33:52Z</time>
      </trkpt>
      <trkpt lat="45.97301" lon="2.97614">
        <ele>664</ele>
        <time>2015-10-19T15:35:52Z</time>
      </trkpt>
      <trkpt lat="45.97373" lon="2.97502">
        <ele>654</ele>
        <time>2015-10-19T15:37:52Z</time>
      </trkpt>
      <trkpt lat="45.97413" lon="2.97432">
        <ele>646</ele>
        <time>2015-10-19T15:39:52Z</time>
      </trkpt>
      <trkpt lat="45.97416" lon="2.97404">
        <ele>644</ele>
        <time>2015-10-19T15:41:52Z</time>
      </trkpt>
      <trkpt lat="45.97445" lon="2.97267">
        <ele>636</ele>
        <time>2015-10-19T15:43:52Z</time>
      </trkpt>
      <trkpt lat="45.9741" lon="2.9722">
        <ele>635</ele>
        <time>2015-10-19T15:45:52Z</time>
      </trkpt>
      <trkpt lat="45.97398" lon="2.97157">
        <ele>631</ele>
        <time>2015-10-19T15:47:52Z</time>
      </trkpt>
      <trkpt lat="45.97384" lon="2.97138">
        <ele>630</ele>
        <time>2015-10-19T15:49:52Z</time>
      </trkpt>
      <trkpt lat="45.97398" lon="2.9708">
        <ele>626</ele>
        <time>2015-10-19T15:51:52Z</time>
      </trkpt>
      <trkpt lat="45.97401" lon="2.97045">
        <ele>623</ele>
        <time>2015-10-19T15:53:52Z</time>
      </trkpt>
      <trkpt lat="45.97403" lon="2.9702">
        <ele>622</ele>
        <time>2015-10-19T15:55:52Z</time>
      </trkpt>
      <trkpt lat="45.97384" lon="2.96969">
        <ele>621</ele>
        <time>2015-10-19T15:57:52Z</time>
      </trkpt>
      <trkpt lat="45.9737" lon="2.96942">
        <ele>622</ele>
        <time>2015-10-19T15:59:52Z</time>
      </trkpt>
      <trkpt lat="45.97386" lon="2.96834">
        <ele>620</ele>
        <time>2015-10-19T16:01:52Z</time>
      </trkpt>
      <trkpt lat="45.97396" lon="2.96784">
        <ele>622</ele>
        <time>2015-10-19T16:03:52Z</time>
      </trkpt>
      <trkpt lat="45.97392" lon="2.96726">
        <ele>626</ele>
        <time>2015-10-19T16:05:52Z</time>
      </trkpt>
      <trkpt lat="45.9732" lon="2.96709">
        <ele>634</ele>
        <time>2015-10-19T16:07:52Z</time>
      </trkpt>
      <trkpt lat="45.97253" lon="2.96666">
        <ele>640</ele>
        <time>2015-10-19T16:09:52Z</time>
      </trkpt>
      <trkpt lat="45.97156" lon="2.96595">
        <ele>647</ele>
        <time>2015-10-19T16:11:52Z</time>
      </trkpt>
      <trkpt lat="45.97115" lon="2.96562">
        <ele>655</ele>
        <time>2015-10-19T16:13:52Z</time>
      </trkpt>
      <trkpt lat="45.97076" lon="2.96562">
        <ele>658</ele>
        <time>2015-10-19T16:15:52Z</time>
      </trkpt>
      <trkpt lat="45.97035" lon="2.96557">
        <ele>659</ele>
        <time>2015-10-19T16:17:52Z</time>
      </trkpt>
      <trkpt lat="45.96993" lon="2.96554">
        <ele>660</ele>
        <time>2015-10-19T16:19:52Z</time>
      </trkpt>
      <trkpt lat="45.97" lon="2.96536">
        <ele>662</ele>
        <time>2015-10-19T16:21:52Z</time>
      </trkpt>
      <trkpt lat="45.9703" lon="2.9652">
        <ele>663</ele>
        <time>2015-10-19T16:23:52Z</time>
      </trkpt>
      <trkpt lat="45.97052" lon="2.96494">
        <ele>666</ele>
        <time>2015-10-19T16:25:52Z</time>
      </trkpt>
      <trkpt lat="45.97061" lon="2.96464">
        <ele>667</ele>
        <time>2015-10-19T16:27:52Z</time>
      </trkpt>
      <trkpt lat="45.97114" lon="2.96388">
        <ele>663</ele>
        <time>2015-10-19T16:29:52Z</time>
      </trkpt>
      <trkpt lat="45.97144" lon="2.96374">
        <ele>659</ele>
        <time>2015-10-19T16:31:52Z</time>
      </trkpt>
      <trkpt lat="45.97214" lon="2.96301">
        <ele>656</ele>
        <time>2015-10-19T16:33:52Z</time>
      </trkpt>
      <trkpt lat="45.97218" lon="2.9627">
        <ele>656</ele>
        <time>2015-10-19T16:35:52Z</time>
      </trkpt>
      <trkpt lat="45.97231" lon="2.96205">
        <ele>658</ele>
        <time>2015-10-19T16:37:52Z</time>
      </trkpt>
      <trkpt lat="45.97229" lon="2.96159">
        <ele>659</ele>
        <time>2015-10-19T16:39:52Z</time>
      </trkpt>
      <trkpt lat="45.97223" lon="2.96117">
        <ele>659</ele>
        <time>2015-10-19T16:41:52Z</time>
      </trkpt>
      <trkpt lat="45.9721" lon="2.96089">
        <ele>660</ele>
        <time>2015-10-19T16:43:52Z</time>
      </trkpt>
      <trkpt lat="45.97198" lon="2.9605">
        <ele>660</ele>
        <time>2015-10-19T16:45:52Z</time>
      </trkpt>
      <trkpt lat="45.97183" lon="2.96002">
        <ele>661</ele>
        <time>2015-10-19T16:47:52Z</time>
      </trkpt>
      <trkpt lat="45.97184" lon="2.95985">
        <ele>661</ele>
        <time>2015-10-19T16:49:52Z</time>
      </trkpt>
      <trkpt lat="45.97139" lon="2.96016">
        <ele>663</ele>
        <time>2015-10-19T16:51:52Z</time>
      </trkpt>
      <trkpt lat="45.97122" lon="2.95989">
        <ele>663</ele>
        <time>2015-10-19T16:53:52Z</time>
      </trkpt>
      <trkpt lat="45.97102" lon="2.9595">
        <ele>663</ele>
        <time>2015-10-19T16:55:52Z</time>
      </trkpt>
      <trkpt lat="45.9707" lon="2.95885">
        <ele>664</ele>
        <time>2015-10-19T16:57:52Z</time>
      </trkpt>
      <trkpt lat="45.97047" lon="2.95895">
        <ele>664</ele>
        <time>2015-10-19T16:59:52Z</time>
      </trkpt>
      <trkpt lat="45.9701" lon="2.95897">
        <ele>664</ele>
        <time>2015-10-19T17:01:52Z</time>
      </trkpt>
      <trkpt lat="45.9699" lon="2.95896">
        <ele>665</ele>
        <time>2015-10-19T17:03:52Z</time>
      </trkpt>
      <trkpt lat="45.96983" lon="2.95853">
        <ele>664</ele>
        <time>2015-10-19T17:05:52Z</time>
      </trkpt>
      <trkpt lat="45.96975" lon="2.95808">
        <ele>662</ele>
        <time>2015-10-19T17:07:52Z</time>
      </trkpt>
      <trkpt lat="45.96968" lon="2.95785">
        <ele>661</ele>
        <time>2015-10-19T17:09:52Z</time>
      </trkpt>
      <trkpt lat="45.96955" lon="2.95768">
        <ele>660</ele>
        <time>2015-10-19T17:11:52Z</time>
      </trkpt>
      <trkpt lat="45.96911" lon="2.95757">
        <ele>659</ele>
        <time>2015-10-19T17:13:52Z</time>
      </trkpt>
      <trkpt lat="45.96886" lon="2.95743">
        <ele>659</ele>
        <time>2015-10-19T17:15:52Z</time>
      </trkpt>
      <trkpt lat="45.96869" lon="2.95725">
        <ele>658</ele>
        <time>2015-10-19T17:17:52Z</time>
      </trkpt>
      <trkpt lat="45.96854" lon="2.95706">
        <ele>657</ele>
        <time>2015-10-19T17:19:52Z</time>
      </trkpt>
      <trkpt lat="45.96844" lon="2.95663">
        <ele>653</ele>
        <time>2015-10-19T17:21:52Z</time>
      </trkpt>
      <trkpt lat="45.96841" lon="2.95621">
        <ele>651</ele>
        <time>2015-10-19T17:23:52Z</time>
      </trkpt>
      <trkpt lat="45.96869" lon="2.95586">
        <ele>651</ele>
        <time>2015-10-19T17:25:52Z</time>
      </trkpt>
      <trkpt lat="45.96897" lon="2.9555">
        <ele>650</ele>
        <time>2015-10-19T17:27:52Z</time>
      </trkpt>
      <trkpt lat="45.96923" lon="2.95527">
        <ele>650</ele>
        <time>2015-10-19T17:29:52Z</time>
      </trkpt>
      <trkpt lat="45.96955" lon="2.95493">
        <ele>648</ele>
        <time>2015-10-19T17:31:52Z</time>
      </trkpt>
      <trkpt lat="45.96977" lon="2.95453">
        <ele>647</ele>
        <time>2015-10-19T17:33:52Z</time>
      </trkpt>
      <trkpt lat="45.96988" lon="2.95428">
        <ele>647</ele>
        <time>2015-10-19T17:35:52Z</time>
      </trkpt>
      <trkpt lat="45.96985" lon="2.95396">
        <ele>647</ele>
        <time>2015-10-19T17:37:52Z</time>
      </trkpt>
      <trkpt lat="45.96978" lon="2.95373">
        <ele>646</ele>
        <time>2015-10-19T17:39:52Z</time>
      </trkpt>
      <trkpt lat="45.96963" lon="2.95356">
        <ele>646</ele>
        <time>2015-10-19T17:41:52Z</time>
      </trkpt>
      <trkpt lat="45.96946" lon="2.95343">
        <ele>646</ele>
        <time>2015-10-19T17:43:52Z</time>
      </trkpt>
      <trkpt lat="45.96903" lon="2.95321">
        <ele>647</ele>
        <time>2015-10-19T17:45:52Z</time>
      </trkpt>
      <trkpt lat="45.96891" lon="2.95307">
        <ele>646</ele>
        <time>2015-10-19T17:47:52Z</time>
      </trkpt>
      <trkpt lat="45.96878" lon="2.95285">
        <ele>646</ele>
        <time>2015-10-19T17:49:52Z</time>
      </trkpt>
      <trkpt lat="45.96867" lon="2.95256">
        <ele>645</ele>
        <time>2015-10-19T17:51:52Z</time>
      </trkpt>
      <trkpt lat="45.96861" lon="2.95215">
        <ele>644</ele>
        <time>2015-10-19T17:53:52Z</time>
      </trkpt>
      <trkpt lat="45.96856" lon="2.95189">
        <ele>644</ele>
        <time>2015-10-19T17:55:52Z</time>
      </trkpt>
      <trkpt lat="45.96854" lon="2.95172">
        <ele>643</ele>
        <time>2015-10-19T17:57:52Z</time>
      </trkpt>
      <trkpt lat="45.96915" lon="2.95099">
        <ele>638</ele>
        <time>2015-10-19T17:59:52Z</time>
      </trkpt>
      <trkpt lat="45.96938" lon="2.95056">
        <ele>637</ele>
        <time>2015-10-19T18:01:52Z</time>
      </trkpt>
      <trkpt lat="45.96957" lon="2.95032">
        <ele>637</ele>
        <time>2015-10-19T18:03:52Z</time>
      </trkpt>
      <trkpt lat="45.96973" lon="2.95017">
        <ele>637</ele>
        <time>2015-10-19T18:05:52Z</time>
      </trkpt>
      <trkpt lat="45.96998" lon="2.94986">
        <ele>636</ele>
        <time>2015-10-19T18:07:52Z</time>
      </trkpt>
      <trkpt lat="45.97008" lon="2.94967">
        <ele>635</ele>
        <time>2015-10-19T18:09:52Z</time>
      </trkpt>
      <trkpt lat="45.97023" lon="2.94909">
        <ele>633</ele>
        <time>2015-10-19T18:11:52Z</time>
      </trkpt>
      <trkpt lat="45.97029" lon="2.94876">
        <ele>631</ele>
        <time>2015-10-19T18:13:52Z</time>
      </trkpt>
      <trkpt lat="45.97041" lon="2.94857">
        <ele>630</ele>
        <time>2015-10-19T18:15:52Z</time>
      </trkpt>
      <trkpt lat="45.97058" lon="2.94837">
        <ele>628</ele>
        <time>2015-10-19T18:17:52Z</time>
      </trkpt>
      <trkpt lat="45.97072" lon="2.94809">
        <ele>625</ele>
        <time>2015-10-19T18:19:52Z</time>
      </trkpt>
      <trkpt lat="45.97084" lon="2.94785">
        <ele>623</ele>
        <time>2015-10-19T18:21:52Z</time>
      </trkpt>
      <trkpt lat="45.97092" lon="2.94773">
        <ele>621</ele>
        <time>2015-10-19T18:23:52Z</time>
      </trkpt>
      <trkpt lat="45.97105" lon="2.94758">
        <ele>620</ele>
        <time>2015-10-19T18:25:52Z</time>
      </trkpt>
      <trkpt lat="45.9712" lon="2.94738">
        <ele>618</ele>
        <time>2015-10-19T18:27:52Z</time>
      </trkpt>
      <trkpt lat="45.97135" lon="2.94695">
        <ele>616</ele>
        <time>2015-10-19T18:29:52Z</time>
      </trkpt>
      <trkpt lat="45.97146" lon="2.94669">
        <ele>615</ele>
        <time>2015-10-19T18:31:52Z</time>
      </trkpt>
      <trkpt lat="45.97163" lon="2.94621">
        <ele>611</ele>
        <time>2015-10-19T18:33:52Z</time>
      </trkpt>
      <trkpt lat="45.97172" lon="2.94605">
        <ele>610</ele>
        <time>2015-10-19T18:35:52Z</time>
      </trkpt>
      <trkpt lat="45.97152" lon="2.94607">
        <ele>610</ele>
        <time>2015-10-19T18:37:52Z</time>
      </trkpt>
      <trkpt lat="45.97125" lon="2.94617">
        <ele>610</ele>
        <time>2015-10-19T18:39:52Z</time>
      </trkpt>
      <trkpt lat="45.97105" lon="2.94626">
        <ele>610</ele>
        <time>2015-10-19T18:41:52Z</time>
      </trkpt>
      <trkpt lat="45.97097" lon="2.94614">
        <ele>609</ele>
        <time>2015-10-19T18:43:52Z</time>
      </trkpt>
      <trkpt lat="45.9709" lon="2.94587">
        <ele>607</ele>
        <time>2015-10-19T18:45:52Z</time>
      </trkpt>
      <trkpt lat="45.97084" lon="2.94565">
        <ele>606</ele>
        <time>2015-10-19T18:47:52Z</time>
      </trkpt>
      <trkpt lat="45.97071" lon="2.94545">
        <ele>606</ele>
        <time>2015-10-19T18:49:52Z</time>
      </trkpt>
      <trkpt lat="45.9706" lon="2.94525">
        <ele>605</ele>
        <time>2015-10-19T18:51:52Z</time>
      </trkpt>
      <trkpt lat="45.97054" lon="2.94473">
        <ele>603</ele>
        <time>2015-10-19T18:53:52Z</time>
      </trkpt>
      <trkpt lat="45.97053" lon="2.94444">
        <ele>603</ele>
        <time>2015-10-19T18:55:52Z</time>
      </trkpt>
      <trkpt lat="45.97052" lon="2.94426">
        <ele>602</ele>
        <time>2015-10-19T18:57:52Z</time>
      </trkpt>
      <trkpt lat="45.97043" lon="2.94372">
        <ele>601</ele>
        <time>2015-10-19T18:59:52Z</time>
      </trkpt>
      <trkpt lat="45.97038" lon="2.94353">
        <ele>600</ele>
        <time>2015-10-19T19:01:52Z</time>
      </trkpt>
      <trkpt lat="45.9704" lon="2.94287">
        <ele>597</ele>
        <time>2015-10-19T19:03:52Z</time>
      </trkpt>
      <trkpt lat="45.97029" lon="2.94263">
        <ele>596</ele>
        <time>2015-10-19T19:05:52Z</time>
      </trkpt>
      <trkpt lat="45.97027" lon="2.9423">
        <ele>594</ele>
        <time>2015-10-19T19:07:52Z</time>
      </trkpt>
      <trkpt lat="45.97014" lon="2.94216">
        <ele>594</ele>
        <time>2015-10-19T19:09:52Z</time>
      </trkpt>
      <trkpt lat="45.97002" lon="2.94198">
        <ele>593</ele>
        <time>2015-10-19T19:11:52Z</time>
      </trkpt>
      <trkpt lat="45.96991" lon="2.94187">
        <ele>594</ele>
        <time>2015-10-19T19:13:52Z</time>
      </trkpt>
      <trkpt lat="45.96978" lon="2.94219">
        <ele>596</ele>
        <time>2015-10-19T19:15:52Z</time>
      </trkpt>
      <trkpt lat="45.96964" lon="2.94232">
        <ele>598</ele>
        <time>2015-10-19T19:17:52Z</time>
      </trkpt>
      <trkpt lat="45.96946" lon="2.94206">
        <ele>598</ele>
        <time>2015-10-19T19:19:52Z</time>
      </trkpt>
      <trkpt lat="45.96928" lon="2.94174">
        <ele>598</ele>
        <time>2015-10-19T19:21:52Z</time>
      </trkpt>
      <trkpt lat="45.96905" lon="2.94153">
        <ele>598</ele>
        <time>2015-10-19T19:23:52Z</time>
      </trkpt>
      <trkpt lat="45.96835" lon="2.94122">
        <ele>599</ele>
        <time>2015-10-19T19:25:52Z</time>
      </trkpt>
      <trkpt lat="45.96791" lon="2.94104">
        <ele>599</ele>
        <time>2015-10-19T19:27:52Z</time>
      </trkpt>
      <trkpt lat="45.96739" lon="2.9407">
        <ele>598</ele>
        <time>2015-10-19T19:29:52Z</time>
      </trkpt>
      <trkpt lat="45.967" lon="2.94063">
        <ele>598</ele>
        <time>2015-10-19T19:31:52Z</time>
      </trkpt>
      <trkpt lat="45.96664" lon="2.94047">
        <ele>598</ele>
        <time>2015-10-19T19:33:52Z</time>
      </trkpt>
      <trkpt lat="45.96641" lon="2.94031">
        <ele>599</ele>
        <time>2015-10-19T19:35:52Z</time>
      </trkpt>
      <trkpt lat="45.9663" lon="2.9402">
        <ele>599</ele>
        <time>2015-10-19T19:37:52Z</time>
      </trkpt>
      <trkpt lat="45.96616" lon="2.9401">
        <ele>600</ele>
        <time>2015-10-19T19:39:52Z</time>
      </trkpt>
      <trkpt lat="45.96581" lon="2.93981">
        <ele>601</ele>
        <time>2015-10-19T19:41:52Z</time>
      </trkpt>
      <trkpt lat="45.9654" lon="2.93996">
        <ele>602</ele>
        <time>2015-10-19T19:43:52Z</time>
      </trkpt>
      <trkpt lat="45.96481" lon="2.94018">
        <ele>604</ele>
        <time>2015-10-19T19:45:52Z</time>
      </trkpt>
      <trkpt lat="45.96429" lon="2.94041">
        <ele>606</ele>
        <time>2015-10-19T19:47:52Z</time>
      </trkpt>
      <trkpt lat="45.96379" lon="2.94062">
        <ele>608</ele>
        <time>2015-10-19T19:49:52Z</time>
      </trkpt>
      <trkpt lat="45.96313" lon="2.94068">
        <ele>613</ele>
        <time>2015-10-19T19:51:52Z</time>
      </trkpt>
      <trkpt lat="45.96288" lon="2.94074">
        <ele>614</ele>
        <time>2015-10-19T19:53:52Z</time>
      </trkpt>
      <trkpt lat="45.96244" lon="2.94107">
        <ele>618</ele>
        <time>2015-10-19T19:55:52Z</time>
      </trkpt>
      <trkpt lat="45.96216" lon="2.94124">
        <ele>621</ele>
        <time>2015-10-19T19:57:52Z</time>
      </trkpt>
      <trkpt lat="45.96208" lon="2.94116">
        <ele>621</ele>
        <time>2015-10-19T19:59:52Z</time>
      </trkpt>
      <trkpt lat="45.9619" lon="2.94123">
        <ele>623</ele>
        <time>2015-10-19T20:01:52Z</time>
      </trkpt>
      <trkpt lat="45.96164" lon="2.94149">
        <ele>626</ele>
        <time>2015-10-19T20:03:52Z</time>
      </trkpt>
      <trkpt lat="45.9614" lon="2.94175">
        <ele>628</ele>
        <time>2015-10-19T20:05:52Z</time>
      </trkpt>
      <trkpt lat="45.9613" lon="2.94183">
        <ele>629</ele>
        <time>2015-10-19T20:07:52Z</time>
      </trkpt>
      <trkpt lat="45.96123" lon="2.94153">
        <ele>629</ele>
        <time>2015-10-19T20:09:52Z</time>
      </trkpt>
    </trkseg>
  </trk>
</gpx>